createdAt,value
2018-08-17T00:01:08.165Z,99085.93
2018-08-17T00:03:38.347Z,99079.65
2018-08-17T00:06:07.915Z,99077.23
2018-08-17T00:08:37.521Z,99074.40
2018-08-17T00:11:07.254Z,99078.80
2018-08-17T00:13:37.209Z,99079.33
2018-08-17T00:16:06.897Z,99075.44
2018-08-17T00:18:37.537Z,99078.85
2018-08-17T00:21:07.545Z,99079.09
2018-08-17T00:23:37.124Z,99077.98
2018-08-17T00:26:07.551Z,99074.53
2018-08-17T00:28:36.955Z,99064.36
2018-08-17T00:31:13.521Z,99068.25
2018-08-17T00:33:43.121Z,99065.00
2018-08-17T00:36:13.414Z,99068.53
2018-08-17T00:38:43.747Z,99073.82
2018-08-17T00:41:13.423Z,99068.08
2018-08-17T00:43:43.129Z,99071.56
2018-08-17T00:46:14.262Z,99070.35
2018-08-17T00:48:43.845Z,99070.94
2018-08-17T00:51:13.324Z,99070.34
2018-08-17T00:53:42.834Z,99070.12
2018-08-17T00:56:13.432Z,99068.36
2018-08-17T00:58:42.842Z,99058.20
2018-08-17T01:01:12.324Z,99061.62
2018-08-17T01:03:41.740Z,99029.62
2018-08-17T01:06:12.771Z,99061.15
2018-08-17T01:08:43.739Z,99061.15
2018-08-17T01:11:14.149Z,99065.12
2018-08-17T01:13:44.067Z,99068.17
2018-08-17T01:16:13.601Z,99058.20
2018-08-17T01:18:43.139Z,99060.28
2018-08-17T01:21:13.555Z,99061.98
2018-08-17T01:23:42.963Z,99057.85
2018-08-17T01:26:12.436Z,99055.64
2018-08-17T01:28:42.090Z,99060.39
2018-08-17T01:31:11.513Z,99061.09
2018-08-17T01:33:42.869Z,99054.95
2018-08-17T01:36:12.301Z,99064.72
2018-08-17T01:38:42.048Z,99058.05
2018-08-17T01:41:11.467Z,99058.88
2018-08-17T01:43:40.909Z,99054.24
2018-08-17T01:46:11.284Z,99054.08
2018-08-17T01:48:40.905Z,99056.75
2018-08-17T01:51:11.347Z,99062.21
2018-08-17T01:53:42.709Z,99057.61
2018-08-17T01:56:12.740Z,99065.55
2018-08-17T01:58:43.108Z,99064.69
2018-08-17T02:01:12.545Z,98543.60
2018-08-17T02:03:42.007Z,99060.38
2018-08-17T02:06:11.456Z,99057.23
2018-08-17T02:08:40.962Z,99060.89
2018-08-17T02:11:10.403Z,99055.44
2018-08-17T02:13:39.884Z,99058.20
2018-08-17T02:16:09.310Z,99054.92
2018-08-17T02:18:38.775Z,99054.80
2018-08-17T02:21:09.622Z,99054.19
2018-08-17T02:23:39.055Z,99052.73
2018-08-17T02:26:08.507Z,99053.24
2018-08-17T02:28:38.044Z,99052.25
2018-08-17T02:31:07.507Z,99048.27
2018-08-17T02:33:36.935Z,99050.35
2018-08-17T02:36:06.467Z,99053.02
2018-08-17T02:38:38.158Z,99049.36
2018-08-17T02:41:07.838Z,99043.28
2018-08-17T02:43:37.237Z,99042.33
2018-08-17T02:46:07.325Z,99039.20
2018-08-17T02:48:36.833Z,99040.03
2018-08-17T02:51:06.410Z,99040.88
2018-08-17T02:53:35.822Z,99005.41
2018-08-17T02:56:05.399Z,99037.50
2018-08-17T02:58:34.857Z,99036.77
2018-08-17T03:01:04.302Z,99040.63
2018-08-17T03:03:34.129Z,99037.48
2018-08-17T03:06:04.130Z,99038.19
2018-08-17T03:08:33.925Z,99040.41
2018-08-17T03:11:03.392Z,99042.22
2018-08-17T03:13:33.796Z,99041.48
2018-08-17T03:16:03.348Z,99046.93
2018-08-17T03:18:33.103Z,99041.48
2018-08-17T03:21:02.627Z,99041.01
2018-08-17T03:23:32.440Z,99043.91
2018-08-17T03:26:03.108Z,99048.27
2018-08-17T03:28:32.508Z,99050.09
2018-08-17T03:31:02.370Z,99051.31
2018-08-17T03:33:32.150Z,99043.92
2018-08-17T03:36:02.133Z,99046.72
2018-08-17T03:38:32.072Z,99047.33
2018-08-17T03:41:01.888Z,99045.36
2018-08-17T03:43:33.446Z,99045.02
2018-08-17T03:46:02.920Z,99045.38
2018-08-17T03:48:32.438Z,99048.74
2018-08-17T03:51:01.927Z,99048.00
2018-08-17T03:53:31.344Z,99052.67
2018-08-17T03:56:01.182Z,99050.15
2018-08-17T03:58:30.605Z,99050.50
2018-08-17T04:01:00.047Z,99057.20
2018-08-17T04:03:29.533Z,99058.31
2018-08-17T04:06:01.266Z,99057.97
2018-08-17T04:08:30.786Z,99067.30
2018-08-17T04:11:00.565Z,99062.83
2018-08-17T04:13:29.990Z,99061.97
2018-08-17T04:15:59.798Z,99059.19
2018-08-17T04:18:29.760Z,99058.78
2018-08-17T04:20:59.317Z,99057.59
2018-08-17T04:23:28.798Z,99060.39
2018-08-17T04:25:58.228Z,99064.98
2018-08-17T04:28:27.692Z,99064.74
2018-08-17T04:30:57.092Z,99069.59
2018-08-17T04:33:26.620Z,99066.58
2018-08-17T04:35:56.676Z,99065.47
2018-08-17T04:38:26.157Z,99059.16
2018-08-17T04:40:55.620Z,99067.78
2018-08-17T04:43:25.109Z,99064.77
2018-08-17T04:45:54.605Z,99072.16
2018-08-17T04:48:24.644Z,99067.86
2018-08-17T04:50:54.087Z,99066.30
2018-08-17T04:53:24.521Z,99068.84
2018-08-17T04:55:54.385Z,99070.29
2018-08-17T04:58:23.793Z,99073.92
2018-08-17T05:00:53.384Z,99073.69
2018-08-17T05:03:22.872Z,99078.57
2018-08-17T05:05:52.988Z,99077.36
2018-08-17T05:08:22.488Z,99080.27
2018-08-17T05:10:51.936Z,99089.47
2018-08-17T05:13:21.414Z,99083.78
2018-08-17T05:15:51.702Z,99083.19
2018-08-17T05:18:21.150Z,99080.76
2018-08-17T05:20:51.322Z,99082.31
2018-08-17T05:23:21.649Z,99085.23
2018-08-17T05:25:51.373Z,99078.33
2018-08-17T05:28:20.898Z,99083.40
2018-08-17T05:30:50.620Z,99059.41
2018-08-17T05:33:20.694Z,99092.44
2018-08-17T05:35:50.220Z,99096.20
2018-08-17T05:38:20.118Z,99096.80
2018-08-17T05:40:49.777Z,99098.56
2018-08-17T05:43:19.666Z,99099.39
2018-08-17T05:45:52.553Z,99105.30
2018-08-17T05:48:21.956Z,99103.97
2018-08-17T05:50:51.534Z,99110.63
2018-08-17T05:53:22.548Z,99106.61
2018-08-17T05:55:52.004Z,99105.85
2018-08-17T05:58:21.693Z,99105.28
2018-08-17T06:00:52.988Z,99112.05
2018-08-17T06:03:22.817Z,99113.67
2018-08-17T06:05:52.311Z,99109.93
2018-08-17T06:08:21.756Z,99064.84
2018-08-17T06:10:51.301Z,99109.06
2018-08-17T06:13:20.949Z,99108.71
2018-08-17T06:15:50.805Z,99106.33
2018-08-17T06:18:20.842Z,99103.97
2018-08-17T06:20:50.363Z,99111.06
2018-08-17T06:23:19.839Z,99105.95
2018-08-17T06:25:49.250Z,99106.97
2018-08-17T06:28:19.243Z,99101.70
2018-08-17T06:30:49.924Z,99107.29
2018-08-17T06:33:19.916Z,99104.92
2018-08-17T06:35:50.057Z,99106.42
2018-08-17T06:38:19.656Z,99103.66
2018-08-17T06:40:49.361Z,99096.61
2018-08-17T06:43:19.549Z,99104.08
2018-08-17T06:45:49.055Z,99096.67
2018-08-17T06:48:18.705Z,99095.63
2018-08-17T06:50:48.201Z,99094.64
2018-08-17T06:53:17.884Z,99095.66
2018-08-17T06:55:47.355Z,99093.80
2018-08-17T06:58:16.768Z,99097.38
2018-08-17T07:00:46.208Z,99097.42
2018-08-17T07:03:16.178Z,99100.93
2018-08-17T07:05:45.633Z,99094.36
2018-08-17T07:08:15.082Z,99101.44
2018-08-17T07:10:44.720Z,99104.32
2018-08-17T07:13:14.140Z,99106.41
2018-08-17T07:15:45.288Z,99104.98
2018-08-17T07:18:15.702Z,99103.63
2018-08-17T07:20:46.124Z,99100.63
2018-08-17T07:23:15.586Z,99102.15
2018-08-17T07:25:45.460Z,99103.23
2018-08-17T07:28:15.098Z,99104.48
2018-08-17T07:30:44.676Z,99103.92
2018-08-17T07:33:14.278Z,99104.80
2018-08-17T07:35:47.548Z,99099.01
2018-08-17T07:38:17.173Z,99102.98
2018-08-17T07:40:46.604Z,99103.17
2018-08-17T07:43:16.090Z,99103.85
2018-08-17T07:45:45.580Z,99108.52
2018-08-17T07:48:15.180Z,99105.82
2018-08-17T07:50:44.933Z,99118.02
2018-08-17T07:53:16.373Z,99115.19
2018-08-17T07:55:45.780Z,99116.34
2018-08-17T07:58:17.323Z,99114.66
2018-08-17T08:00:46.842Z,99119.41
2018-08-17T08:03:16.262Z,99028.17
2018-08-17T08:05:45.868Z,99117.49
2018-08-17T08:08:15.441Z,99119.88
2018-08-17T08:10:44.849Z,99116.17
2018-08-17T08:13:14.325Z,99122.27
2018-08-17T08:15:45.229Z,99119.80
2018-08-17T08:18:14.649Z,99128.25
2018-08-17T08:20:45.325Z,99118.05
2018-08-17T08:23:25.219Z,99121.49
2018-08-17T08:25:55.129Z,99119.59
2018-08-17T08:28:24.758Z,99116.98
2018-08-17T08:30:54.236Z,99115.09
2018-08-17T08:33:25.740Z,99111.11
2018-08-17T08:35:56.389Z,99115.74
2018-08-17T08:38:26.450Z,99107.48
2018-08-17T08:41:00.650Z,99102.84
2018-08-17T08:43:30.151Z,99105.20
2018-08-17T08:45:59.596Z,99103.88
2018-08-17T08:48:30.404Z,99102.03
2018-08-17T08:50:59.992Z,99105.91
2018-08-17T08:53:29.460Z,99100.19
2018-08-17T08:55:58.912Z,99099.47
2018-08-17T08:58:29.504Z,99101.68
2018-08-17T09:01:00.507Z,99098.45
2018-08-17T09:03:30.176Z,99085.41
2018-08-17T09:06:08.803Z,99090.92
2018-08-17T09:08:38.170Z,99063.10
2018-08-17T09:11:07.837Z,99088.84
2018-08-17T09:13:38.617Z,99088.98
2018-08-17T09:16:17.730Z,99098.52
2018-08-17T09:18:47.933Z,99086.61
2018-08-17T09:21:17.692Z,99091.11
2018-08-17T09:23:47.850Z,99089.02
2018-08-17T09:26:18.336Z,99085.28
2018-08-17T09:28:47.701Z,99085.64
2018-08-17T09:31:18.071Z,99088.19
2018-08-17T09:33:47.687Z,99076.97
2018-08-17T09:36:17.202Z,99070.27
2018-08-17T09:38:46.640Z,99076.89
2018-08-17T09:41:16.123Z,99079.39
2018-08-17T09:43:45.965Z,99075.38
2018-08-17T09:46:15.322Z,99068.62
2018-08-17T09:48:44.793Z,99063.25
2018-08-17T09:51:16.843Z,99056.48
2018-08-17T09:53:49.892Z,99055.08
2018-08-17T09:56:21.235Z,99062.26
2018-08-17T09:58:51.662Z,99059.20
2018-08-17T10:01:26.821Z,99058.83
2018-08-17T10:04:02.168Z,99057.23
2018-08-17T10:06:42.170Z,99055.36
2018-08-17T10:09:19.714Z,99063.77
2018-08-17T10:11:51.003Z,99057.31
2018-08-17T10:14:21.514Z,99058.14
2018-08-17T10:16:51.565Z,99055.47
2018-08-17T10:19:20.989Z,99057.09
2018-08-17T10:21:53.005Z,99050.06
2018-08-17T10:24:25.084Z,99051.58
2018-08-17T10:26:56.037Z,99052.11
2018-08-17T10:29:26.180Z,99044.42
2018-08-17T10:31:57.060Z,99043.31
2018-08-17T10:34:27.350Z,99036.93
2018-08-17T10:36:58.160Z,99038.17
2018-08-17T10:39:30.570Z,99033.08
2018-08-17T10:42:00.272Z,99035.77
2018-08-17T10:44:37.379Z,99040.64
2018-08-17T10:47:08.697Z,99039.97
2018-08-17T10:49:38.260Z,99052.38
2018-08-17T10:52:08.909Z,99037.91
2018-08-17T10:54:38.365Z,99039.86
2018-08-17T10:57:08.134Z,99041.16
2018-08-17T10:59:38.095Z,99036.96
2018-08-17T11:02:08.144Z,99037.44
2018-08-17T11:04:38.854Z,99037.80
2018-08-17T11:07:08.949Z,99039.58
2018-08-17T11:09:38.419Z,99043.45
2018-08-17T11:12:07.895Z,99041.48
2018-08-17T11:14:37.609Z,99034.57
2018-08-17T11:17:07.769Z,99039.52
2018-08-17T11:19:37.912Z,99035.70
2018-08-17T11:22:07.640Z,99015.91
2018-08-17T11:24:37.013Z,99034.98
2018-08-17T11:27:06.899Z,99020.30
2018-08-17T11:29:36.312Z,99026.30
2018-08-17T11:32:05.700Z,99018.63
2018-08-17T11:34:35.152Z,99026.91
2018-08-17T11:37:04.620Z,99020.38
2018-08-17T11:39:34.085Z,99021.14
2018-08-17T11:42:03.493Z,99020.61
2018-08-17T11:44:32.867Z,99014.84
2018-08-17T11:47:02.259Z,99017.87
2018-08-17T11:49:31.862Z,99019.78
2018-08-17T11:52:01.290Z,99012.43
2018-08-17T11:54:30.726Z,99005.91
2018-08-17T11:57:00.185Z,99006.42
2018-08-17T11:59:29.647Z,99004.85
2018-08-17T12:01:59.088Z,99007.69
2018-08-17T12:04:28.867Z,99007.73
2018-08-17T12:06:58.280Z,99012.45
2018-08-17T12:09:27.632Z,99006.56
2018-08-17T12:11:57.029Z,99013.92
2018-08-17T12:14:26.472Z,99005.02
2018-08-17T12:16:55.925Z,99002.69
2018-08-17T12:19:25.333Z,99010.97
2018-08-17T12:21:58.057Z,99005.31
2018-08-17T12:24:27.593Z,99007.19
2018-08-17T12:26:57.095Z,99002.48
2018-08-17T12:29:27.211Z,99003.55
2018-08-17T12:31:56.580Z,99000.94
2018-08-17T12:34:26.187Z,98997.03
2018-08-17T12:36:55.597Z,98991.13
2018-08-17T12:39:25.711Z,98990.30
2018-08-17T12:41:55.768Z,98988.32
2018-08-17T12:44:25.131Z,98988.03
2018-08-17T12:46:55.436Z,98981.05
2018-08-17T12:49:25.141Z,98983.17
2018-08-17T12:51:54.650Z,98981.66
2018-08-17T12:54:28.285Z,98979.41
2018-08-17T12:56:58.252Z,98985.05
2018-08-17T12:59:27.753Z,98978.13
2018-08-17T13:01:57.246Z,98975.87
2018-08-17T13:04:27.508Z,98969.44
2018-08-17T13:06:57.356Z,98970.06
2018-08-17T13:09:27.076Z,98967.57
2018-08-17T13:12:00.646Z,98968.02
2018-08-17T13:14:30.574Z,98961.84
2018-08-17T13:17:01.102Z,98973.05
2018-08-17T13:19:31.289Z,98964.56
2018-08-17T13:22:00.749Z,98963.17
2018-08-17T13:24:30.254Z,98963.70
2018-08-17T13:26:59.637Z,98965.69
2018-08-17T13:29:29.113Z,98961.50
2018-08-17T13:31:58.526Z,98958.53
2018-08-17T13:34:27.918Z,98957.01
2018-08-17T13:36:57.376Z,98953.45
2018-08-17T13:39:26.752Z,98961.16
2018-08-17T13:41:56.150Z,98949.81
2018-08-17T13:44:25.558Z,98939.91
2018-08-17T13:46:54.974Z,98941.83
2018-08-17T13:49:24.368Z,98941.64
2018-08-17T13:51:53.804Z,98943.31
2018-08-17T13:54:23.313Z,98946.09
2018-08-17T13:56:52.712Z,98942.92
2018-08-17T13:59:22.780Z,98948.52
2018-08-17T14:01:52.190Z,98945.16
2018-08-17T14:04:21.556Z,98938.25
2018-08-17T14:06:50.937Z,98932.08
2018-08-17T14:09:20.305Z,98937.52
2018-08-17T14:11:49.694Z,98926.31
2018-08-17T14:14:19.144Z,98929.58
2018-08-17T14:16:49.597Z,98930.42
2018-08-17T14:19:18.976Z,98933.13
2018-08-17T14:21:48.369Z,98933.13
2018-08-17T14:24:18.058Z,98932.41
2018-08-17T14:26:47.673Z,98927.47
2018-08-17T14:29:17.099Z,98930.92
2018-08-17T14:31:46.636Z,98925.39
2018-08-17T14:34:16.099Z,98928.63
2018-08-17T14:36:45.672Z,98935.53
2018-08-17T14:39:15.865Z,98918.80
2018-08-17T14:41:53.362Z,98919.68
2018-08-17T14:44:22.941Z,98921.48
2018-08-17T14:46:53.040Z,98919.30
2018-08-17T14:49:22.635Z,98924.45
2018-08-17T14:51:53.090Z,98922.15
2018-08-17T14:54:23.258Z,98918.98
2018-08-17T14:56:53.126Z,98917.53
2018-08-17T14:59:22.606Z,98918.16
2018-08-17T15:01:52.034Z,98913.91
2018-08-17T15:04:21.491Z,98906.97
2018-08-17T15:06:51.332Z,98911.08
2018-08-17T15:09:20.781Z,98915.64
2018-08-17T15:11:50.169Z,98917.86
2018-08-17T15:14:19.617Z,98913.37
2018-08-17T15:16:49.208Z,98912.12
2018-08-17T15:19:18.668Z,98914.75
2018-08-17T15:21:48.635Z,98916.21
2018-08-17T15:24:19.023Z,98914.64
2018-08-17T15:26:48.412Z,98917.16
2018-08-17T15:29:17.818Z,98917.56
2018-08-17T15:31:47.184Z,98909.47
2018-08-17T15:34:16.768Z,98912.66
2018-08-17T15:36:46.233Z,98913.78
2018-08-17T15:39:15.606Z,98910.37
2018-08-17T15:41:46.141Z,98906.98
2018-08-17T15:44:20.756Z,98909.94
2018-08-17T15:46:50.430Z,98905.44
2018-08-17T15:49:39.040Z,98901.91
2018-08-17T15:52:12.249Z,98904.19
2018-08-17T15:54:41.691Z,98905.63
2018-08-17T15:57:11.059Z,98904.82
2018-08-17T15:59:40.461Z,98906.52
2018-08-17T16:02:10.032Z,98876.83
2018-08-17T16:04:39.440Z,98902.10
2018-08-17T16:07:09.294Z,98902.22
2018-08-17T16:09:38.696Z,98899.62
2018-08-17T16:12:08.608Z,98893.28
2018-08-17T16:14:38.083Z,98896.82
2018-08-17T16:17:07.540Z,98890.45
2018-08-17T16:19:36.956Z,98897.25
2018-08-17T16:22:06.424Z,98899.73
2018-08-17T16:24:36.441Z,98902.60
2018-08-17T16:27:06.040Z,98900.70
2018-08-17T16:29:35.459Z,98902.05
2018-08-17T16:32:04.936Z,98902.29
2018-08-17T16:34:34.452Z,98897.67
2018-08-17T16:37:03.936Z,98901.98
2018-08-17T16:39:39.258Z,98904.50
2018-08-17T16:42:10.268Z,98907.29
2018-08-17T16:44:39.735Z,98913.03
2018-08-17T16:47:09.743Z,98906.11
2018-08-17T16:49:39.156Z,98903.71
2018-08-17T16:52:09.288Z,98905.14
2018-08-17T16:54:38.725Z,98903.42
2018-08-17T16:57:08.313Z,98902.98
2018-08-17T16:59:38.945Z,98910.64
2018-08-17T17:02:08.352Z,98904.66
2018-08-17T17:04:40.549Z,98911.19
2018-08-17T17:07:11.309Z,98913.66
2018-08-17T17:09:41.099Z,98906.59
2018-08-17T17:12:16.080Z,98914.30
2018-08-17T17:14:46.828Z,98913.76
2018-08-17T17:17:16.924Z,98918.63
2018-08-17T17:19:46.348Z,98924.52
2018-08-17T17:22:17.536Z,98922.91
2018-08-17T17:24:46.994Z,98927.35
2018-08-17T17:27:19.240Z,98925.68
2018-08-17T17:29:49.781Z,98928.55
2018-08-17T17:32:19.792Z,98922.77
2018-08-17T17:34:50.306Z,98924.22
2018-08-17T17:37:19.877Z,98925.69
2018-08-17T17:39:49.352Z,98926.06
2018-08-17T17:42:18.790Z,98928.88
2018-08-17T17:44:48.205Z,98938.19
2018-08-17T17:47:17.675Z,98937.48
2018-08-17T17:49:47.260Z,98942.41
2018-08-17T17:52:16.683Z,98944.86
2018-08-17T17:54:46.724Z,98950.87
2018-08-17T17:57:16.275Z,98942.65
2018-08-17T17:59:56.498Z,98943.95
2018-08-17T18:02:26.780Z,98946.48
2018-08-17T18:04:56.158Z,98951.14
2018-08-17T18:07:33.828Z,98951.00
2018-08-17T18:10:04.394Z,98955.15
2018-08-17T18:12:33.784Z,98963.39
2018-08-17T18:15:06.457Z,98964.97
2018-08-17T18:17:35.885Z,98966.57
2018-08-17T18:20:13.379Z,98972.37
2018-08-17T18:22:42.825Z,98972.31
2018-08-17T18:25:18.647Z,98954.03
2018-08-17T18:27:49.154Z,98982.17
2018-08-17T18:30:18.606Z,98981.06
2018-08-17T18:32:49.824Z,98985.16
2018-08-17T18:35:19.445Z,98982.48
2018-08-17T18:37:49.009Z,98985.78
2018-08-17T18:40:18.524Z,98992.39
2018-08-17T18:42:47.929Z,98991.75
2018-08-17T18:45:17.313Z,98993.42
2018-08-17T18:47:46.716Z,98997.52
2018-08-17T18:50:16.142Z,99000.55
2018-08-17T18:52:45.664Z,98997.89
2018-08-17T18:55:16.150Z,99003.66
2018-08-17T18:57:45.609Z,99003.33
2018-08-17T19:00:15.272Z,99010.59
2018-08-17T19:02:44.650Z,99012.33
2018-08-17T19:05:16.070Z,99008.27
2018-08-17T19:07:45.536Z,99005.42
2018-08-17T19:10:19.872Z,99005.61
2018-08-17T19:12:49.469Z,99004.84
2018-08-17T19:15:18.913Z,99002.50
2018-08-17T19:17:48.509Z,99008.81
2018-08-17T19:20:17.971Z,99008.33
2018-08-17T19:22:47.388Z,99011.88
2018-08-17T19:25:17.265Z,98898.97
2018-08-17T19:27:46.750Z,99017.98
2018-08-17T19:30:26.318Z,99019.18
2018-08-17T19:32:57.169Z,99020.06
2018-08-17T19:35:27.042Z,99022.80
2018-08-17T19:37:56.795Z,99020.91
2018-08-17T19:40:26.347Z,99021.00
2018-08-17T19:42:56.019Z,99027.96
2018-08-17T19:45:25.493Z,99020.72
2018-08-17T19:47:54.926Z,99026.97
2018-08-17T19:50:24.396Z,99028.68
2018-08-17T19:52:53.916Z,99029.69
2018-08-17T19:55:23.497Z,99035.75
2018-08-17T19:57:52.863Z,99039.30
2018-08-17T20:00:22.997Z,99047.73
2018-08-17T20:02:52.413Z,99043.84
2018-08-17T20:05:21.800Z,99045.17
2018-08-17T20:07:51.318Z,99042.94
2018-08-17T20:10:20.824Z,99046.45
2018-08-17T20:12:50.284Z,99046.80
2018-08-17T20:15:19.734Z,99045.23
2018-08-17T20:17:51.312Z,99055.13
2018-08-17T20:20:20.750Z,99056.44
2018-08-17T20:22:50.202Z,99050.77
2018-08-17T20:25:20.010Z,99057.60
2018-08-17T20:27:49.453Z,99057.79
2018-08-17T20:30:20.291Z,99054.73
2018-08-17T20:32:49.828Z,99063.42
2018-08-17T20:35:19.250Z,99064.37
2018-08-17T20:37:51.152Z,99060.08
2018-08-17T20:40:21.077Z,99064.68
2018-08-17T20:42:50.890Z,99062.33
2018-08-17T20:45:22.969Z,99064.31
2018-08-17T20:47:52.395Z,99062.55
2018-08-17T20:50:21.819Z,99061.79
2018-08-17T20:52:56.551Z,99063.43
2018-08-17T20:55:27.712Z,99067.08
2018-08-17T20:57:58.167Z,99068.19
2018-08-17T21:00:28.847Z,99068.66
2018-08-17T21:02:58.482Z,99041.55
2018-08-17T21:05:27.877Z,99065.88
2018-08-17T21:07:57.614Z,99063.78
2018-08-17T21:10:27.309Z,99061.77
2018-08-17T21:12:56.806Z,99073.86
2018-08-17T21:15:26.741Z,99075.68
2018-08-17T21:17:56.231Z,99071.80
2018-08-17T21:20:25.790Z,99069.72
2018-08-17T21:22:55.209Z,99067.70
2018-08-17T21:25:24.602Z,99072.63
2018-08-17T21:27:54.174Z,99074.59
2018-08-17T21:30:24.181Z,99076.02
2018-08-17T21:32:53.641Z,99085.55
2018-08-17T21:35:23.057Z,99081.27
2018-08-17T21:37:53.576Z,99079.61
2018-08-17T21:40:27.959Z,99080.21
2018-08-17T21:42:58.558Z,99082.64
2018-08-17T21:45:28.032Z,99079.32
2018-08-17T21:47:57.630Z,99086.63
2018-08-17T21:50:27.224Z,99087.77
2018-08-17T21:52:56.684Z,99082.59
2018-08-17T21:55:26.819Z,99076.75
2018-08-17T21:57:56.367Z,99087.14
2018-08-17T22:00:32.971Z,99079.29
2018-08-17T22:03:04.929Z,99086.66
2018-08-17T22:05:34.911Z,99091.09
2018-08-17T22:08:05.294Z,99090.69
2018-08-17T22:10:35.140Z,99091.45
2018-08-17T22:13:05.602Z,99095.54
2018-08-17T22:15:35.022Z,99096.75
2018-08-17T22:18:04.549Z,99099.00
2018-08-17T22:20:33.930Z,99097.87
2018-08-17T22:23:03.407Z,99091.27
2018-08-17T22:25:32.860Z,99099.14
2018-08-17T22:28:02.872Z,99094.56
2018-08-17T22:30:32.374Z,99093.24
2018-08-17T22:33:02.325Z,99089.50
2018-08-17T22:35:31.930Z,99084.38
2018-08-17T22:38:01.513Z,99082.97
2018-08-17T22:40:30.950Z,99084.97
2018-08-17T22:43:00.793Z,99096.39
2018-08-17T22:45:30.190Z,99091.34
2018-08-17T22:48:00.508Z,99091.92
2018-08-17T22:50:30.873Z,99092.98
2018-08-17T22:53:02.382Z,99085.18
2018-08-17T22:55:31.880Z,99081.30
2018-08-17T22:58:01.961Z,99082.77
2018-08-17T23:00:31.752Z,99085.45
2018-08-17T23:03:02.748Z,99090.30
2018-08-17T23:05:36.049Z,99089.38
2018-08-17T23:08:05.704Z,99084.84
2018-08-17T23:10:35.111Z,99089.14
2018-08-17T23:13:04.920Z,99092.64
2018-08-17T23:15:35.049Z,99090.20
2018-08-17T23:18:04.656Z,99093.36
2018-08-17T23:20:37.399Z,99089.27
2018-08-17T23:23:07.636Z,99091.12
2018-08-17T23:25:37.111Z,99095.84
2018-08-17T23:28:06.892Z,99086.21
2018-08-17T23:30:36.643Z,99091.09
2018-08-17T23:33:06.271Z,99091.95
2018-08-17T23:35:35.682Z,99103.19
2018-08-17T23:38:05.713Z,99100.98
2018-08-17T23:40:35.134Z,99106.98
2018-08-17T23:43:04.732Z,99096.46
2018-08-17T23:45:34.212Z,99104.61
2018-08-17T23:48:03.683Z,99112.86
2018-08-17T23:50:34.177Z,99112.89
2018-08-17T23:53:03.612Z,99121.92
2018-08-17T23:55:33.032Z,99122.22
2018-08-17T23:58:02.416Z,99125.72
